Hayward, CA (94557)

11:48 AM PDT on September 21, 2014 (GMT -0700)
Southgate | Change Station
CLOSE
Current Station
Personal Weather Station
Location: Hayward, CA
Elevation: 19 ft
Nearby Weather Stations

Elev 19 ft 37.64 °N, 122.09 °W | Updated 5 minutes ago

Overcast
Overcast
66.6 °F
Feels Like 66.6 °F
N
1.0
Wind Variable Wind from WSW

Today
High -- | Low -- °F
--% Chance of Precip.
Yesterday
High -- | Low -- °F
Precip. -- in
6:55 AM 7:06 PM
Waning Crescent, 6% visible
Pressure 30.04 in
Visibility 10.0 miles
Clouds Overcast 1500 ft
Dew Point 59 °F
Humidity 77%
Rainfall 0.00 in
Snow Depth 0 in , 0 in , 0 in
UV 1.4 out of 12
Pollen 3.80 out of 12
PM2.5 Good
Flu Activity Not available.
METAR KHWD 211754Z AUTO 25005KT 10SM OVC015 20/16 A3002 RMK AO2 SLP173 T02000161 10206 20189 51005

More Conditions Fewer Conditions

Pressure 30.04 in
Visibility 10.0 miles
Clouds Overcast 1500 ft
Dew Point 59 °F
Humidity 77%
Rainfall 0.00 in
Snow Depth 0 in , 0 in , 0 in
UV 1.4 out of 12
Pollen 3.80 out of 12
PM2.5 Good
Flu Activity Not available.
METAR KHWD 211754Z AUTO 25005KT 10SM OVC015 20/16 A3002 RMK AO2 SLP173 T02000161 10206 20189 51005

More Conditions Fewer Conditions

10-Day Weather Forecast

Almanac

Astronomy

Sep. 21, 2014 Rise Set
Actual Time 6:55 AM PDT 7:06 PM PDT
Civil Twilight 6:29 AM PDT 7:32 PM PDT
Nautical Twilight 5:58 AM PDT 8:03 PM PDT
Astronomical Twilight 5:27 AM PDT 8:34 PM PDT
Moon 4:36 AM PDT 5:44 PM PDT
Length of Visible Light 13h 03m
Length of Day
12h 11m
Tomorrow will be 2m 24s shorter.
Waning Crescent, 6% of the Moon is Illuminated
Today
Waning Crescent
Sep 24
New
Oct 1
First Quarter
Oct 8
Full
Oct 15
Last Quarter

Today's Extremes

State Highs State Lows

Community

WunderPhotos

Upload Photos

1,755,211 photos uploaded!

WunderBlogs® & News

Nearby

Air Quality

  Air Quality AQ Index Pollutant
Yesterday Good
PM2.5
Yesterday Good
OZONE
Current Good
PM2.5
Sunday Moderate
PM2.5
Monday Good
PM2.5
Tuesday Good
PM2.5
Wednesday Good
OZONE
Thursday Good
OZONE
Friday Good
OZONE

Snow Depth

Station Depth Elevation
Hagan's Meadow 0 in 8000 ft
Fallen Leaf 0 in 6300 ft
Summit Meadow 0 in 9122 ft
Spratt Creek 0 in 6200 ft
Rubicon #2 0 in 7500 ft

Earthquake Activity

City Distance Mag. Time & Date
Cloverdale, California 93 miles 2.5 9:15 PM PDT
2014-09-20
Livermore, California 20 miles 2.6 3:37 AM PDT
2014-09-19
The Geysers, California 84 miles 2.5 11:29 PM PDT
2014-09-17
Minimum magnitude displayed is 2.5.

Coastal Water Temperatures

Place Temperature
No Stations Reporting

Nearby Weather Stations